Terminal Aerodrome Forecast
Issued by NWS Tulsa, OK

Home | Current Version | Previous Version | Text Only | Print | Product List | Glossary On
Versions: 1 2 3 4 5 6 7 8 9 10 11 12 13
000
FTUS44 KTSA 211128
TAFFSM
TAF
KFSM 211128Z 2112/2212 03004KT P6SM BKN045 WS015/19040KT
     FM211400 17012G19KT P6SM BKN025
     FM220000 20015G24KT P6SM VCTS BKN025CB
      TEMPO 2200/2204 VRB15G35KT 3SM -TSRA BR BKN020CB
     FM220400 23011KT P6SM BKN100=

USA.gov is the U.S. government's official web portal to all federal, state and local government web resources and services.